sensor_id;sensor_type;location;lat;lon;timestamp;pressure;altitude;pressure_sealevel;temperature;humidity
79707;BME280;69200;53.612;-2.416;2023-09-19T00:01:28;98532.16;;;10.24;93.25
79707;BME280;69200;53.612;-2.416;2023-09-19T00:03:55;98527.25;;;10.21;92.95
79707;BME280;69200;53.612;-2.416;2023-09-19T00:06:22;98530.00;;;10.26;92.60
79707;BME280;69200;53.612;-2.416;2023-09-19T00:08:54;98524.59;;;10.36;92.59
79707;BME280;69200;53.612;-2.416;2023-09-19T00:11:20;98523.50;;;10.38;92.97
79707;BME280;69200;53.612;-2.416;2023-09-19T00:13:47;98512.94;;;10.36;91.74
79707;BME280;69200;53.612;-2.416;2023-09-19T00:16:15;98510.47;;;10.34;92.21
79707;BME280;69200;53.612;-2.416;2023-09-19T00:18:40;98514.81;;;10.30;92.52
79707;BME280;69200;53.612;-2.416;2023-09-19T00:21:05;98522.41;;;10.49;94.21
79707;BME280;69200;53.612;-2.416;2023-09-19T00:23:32;98522.13;;;10.55;93.22
79707;BME280;69200;53.612;-2.416;2023-09-19T00:25:59;98521.28;;;10.65;93.20
79707;BME280;69200;53.612;-2.416;2023-09-19T00:28:24;98512.88;;;10.67;93.40
79707;BME280;69200;53.612;-2.416;2023-09-19T00:30:50;98514.22;;;10.74;93.79
79707;BME280;69200;53.612;-2.416;2023-09-19T00:33:15;98527.28;;;10.57;92.36
79707;BME280;69200;53.612;-2.416;2023-09-19T00:36:01;98530.53;;;10.49;92.19
79707;BME280;69200;53.612;-2.416;2023-09-19T00:38:30;98538.97;;;10.52;94.29
79707;BME280;69200;53.612;-2.416;2023-09-19T00:40:57;98544.09;;;10.33;93.98
79707;BME280;69200;53.612;-2.416;2023-09-19T00:43:22;98543.03;;;10.60;94.90
79707;BME280;69200;53.612;-2.416;2023-09-19T00:45:51;98545.72;;;10.75;95.24
79707;BME280;69200;53.612;-2.416;2023-09-19T00:48:17;98546.78;;;10.64;94.50
79707;BME280;69200;53.612;-2.416;2023-09-19T00:50:45;98549.25;;;10.71;94.84
79707;BME280;69200;53.612;-2.416;2023-09-19T00:53:15;98548.41;;;10.80;95.68
79707;BME280;69200;53.612;-2.416;2023-09-19T00:55:43;98551.69;;;10.52;93.83
79707;BME280;69200;53.612;-2.416;2023-09-19T00:58:09;98556.28;;;10.67;94.50
79707;BME280;69200;53.612;-2.416;2023-09-19T01:00:35;98557.13;;;10.67;96.17
79707;BME280;69200;53.612;-2.416;2023-09-19T01:03:01;98555.75;;;10.70;95.19
79707;BME280;69200;53.612;-2.416;2023-09-19T01:05:27;98537.06;;;10.53;93.34
79707;BME280;69200;53.612;-2.416;2023-09-19T01:07:53;98544.63;;;10.71;93.19
79707;BME280;69200;53.612;-2.416;2023-09-19T01:10:20;98545.69;;;10.80;94.47
79707;BME280;69200;53.612;-2.416;2023-09-19T01:29:38;98543.84;;;10.45;95.13
79707;BME280;69200;53.612;-2.416;2023-09-19T01:32:05;98535.97;;;10.44;93.78
79707;BME280;69200;53.612;-2.416;2023-09-19T01:34:52;98535.41;;;10.67;94.34
79707;BME280;69200;53.612;-2.416;2023-09-19T01:37:20;98530.22;;;10.81;94.67
79707;BME280;69200;53.612;-2.416;2023-09-19T01:40:10;98539.44;;;10.75;93.66
79707;BME280;69200;53.612;-2.416;2023-09-19T01:48:02;98524.81;;;10.65;94.38
79707;BME280;69200;53.612;-2.416;2023-09-19T01:50:36;98536.47;;;10.81;92.81
79707;BME280;69200;53.612;-2.416;2023-09-19T01:53:26;98543.25;;;10.58;92.04
79707;BME280;69200;53.612;-2.416;2023-09-19T01:55:54;98539.22;;;10.41;92.94
79707;BME280;69200;53.612;-2.416;2023-09-19T01:58:27;98531.88;;;10.41;94.21
79707;BME280;69200;53.612;-2.416;2023-09-19T02:00:56;98530.53;;;10.33;94.05
79707;BME280;69200;53.612;-2.416;2023-09-19T02:03:23;98533.53;;;10.32;94.31
79707;BME280;69200;53.612;-2.416;2023-09-19T02:05:50;98545.19;;;10.22;94.71
79707;BME280;69200;53.612;-2.416;2023-09-19T02:08:21;98524.00;;;10.14;95.09
79707;BME280;69200;53.612;-2.416;2023-09-19T02:10:49;98521.59;;;10.38;95.79
79707;BME280;69200;53.612;-2.416;2023-09-19T02:13:18;98522.94;;;10.25;94.28
79707;BME280;69200;53.612;-2.416;2023-09-19T02:15:44;98511.56;;;10.23;94.42
79707;BME280;69200;53.612;-2.416;2023-09-19T02:18:10;98521.28;;;10.14;94.53
79707;BME280;69200;53.612;-2.416;2023-09-19T02:20:37;98519.66;;;10.08;96.23
79707;BME280;69200;53.612;-2.416;2023-09-19T02:23:03;98519.13;;;10.21;96.71
79707;BME280;69200;53.612;-2.416;2023-09-19T02:25:28;98507.47;;;10.11;96.31
79707;BME280;69200;53.612;-2.416;2023-09-19T02:27:54;98493.91;;;10.16;95.64
79707;BME280;69200;53.612;-2.416;2023-09-19T02:30:19;98486.84;;;10.09;95.41
79707;BME280;69200;53.612;-2.416;2023-09-19T02:32:50;98486.59;;;10.16;96.24
79707;BME280;69200;53.612;-2.416;2023-09-19T02:35:15;98486.34;;;10.33;96.72
79707;BME280;69200;53.612;-2.416;2023-09-19T02:37:41;98495.56;;;10.32;95.60
79707;BME280;69200;53.612;-2.416;2023-09-19T02:40:07;98492.03;;;10.52;97.22
79707;BME280;69200;53.612;-2.416;2023-09-19T02:42:47;98484.16;;;10.55;97.35
79707;BME280;69200;53.612;-2.416;2023-09-19T02:45:15;98488.22;;;10.48;96.26
79707;BME280;69200;53.612;-2.416;2023-09-19T02:47:43;98482.00;;;10.47;97.13
79707;BME280;69200;53.612;-2.416;2023-09-19T02:50:08;98481.44;;;10.50;96.99
79707;BME280;69200;53.612;-2.416;2023-09-19T02:52:35;98477.94;;;10.45;96.46
79707;BME280;69200;53.612;-2.416;2023-09-19T02:55:01;98469.00;;;10.39;97.45
79707;BME280;69200;53.612;-2.416;2023-09-19T02:57:29;98487.16;;;10.39;96.71
79707;BME280;69200;53.612;-2.416;2023-09-19T02:59:54;98482.00;;;10.37;97.35
79707;BME280;69200;53.612;-2.416;2023-09-19T03:02:20;98471.97;;;10.32;97.33
79707;BME280;69200;53.612;-2.416;2023-09-19T03:04:49;98462.22;;;10.21;97.29
79707;BME280;69200;53.612;-2.416;2023-09-19T03:07:16;98447.28;;;10.39;98.14
79707;BME280;69200;53.612;-2.416;2023-09-19T03:09:42;98456.78;;;10.47;98.96
79707;BME280;69200;53.612;-2.416;2023-09-19T03:12:08;98449.41;;;10.68;99.51
79707;BME280;69200;53.612;-2.416;2023-09-19T03:14:33;98458.34;;;10.78;99.29
79707;BME280;69200;53.612;-2.416;2023-09-19T03:17:00;98446.38;;;10.84;98.69
79707;BME280;69200;53.612;-2.416;2023-09-19T03:19:26;98448.31;;;10.69;98.50
79707;BME280;69200;53.612;-2.416;2023-09-19T03:21:52;98447.47;;;10.73;97.22
79707;BME280;69200;53.612;-2.416;2023-09-19T03:24:18;98446.09;;;10.86;94.11
79707;BME280;69200;53.612;-2.416;2023-09-19T03:26:44;98447.47;;;10.73;95.24
79707;BME280;69200;53.612;-2.416;2023-09-19T03:29:10;98440.44;;;10.72;95.36
79707;BME280;69200;53.612;-2.416;2023-09-19T03:31:36;98433.47;;;10.51;95.06
79707;BME280;69200;53.612;-2.416;2023-09-19T03:34:02;98434.00;;;10.48;97.01
79707;BME280;69200;53.612;-2.416;2023-09-19T03:36:29;98429.09;;;10.60;95.81
79707;BME280;69200;53.612;-2.416;2023-09-19T03:38:54;98428.03;;;10.41;95.43
79707;BME280;69200;53.612;-2.416;2023-09-19T03:41:20;98427.19;;;10.60;97.62
79707;BME280;69200;53.612;-2.416;2023-09-19T03:43:45;98412.78;;;10.75;98.12
79707;BME280;69200;53.612;-2.416;2023-09-19T03:46:10;98407.53;;;10.89;99.40
79707;BME280;69200;53.612;-2.416;2023-09-19T03:48:38;98402.66;;;10.91;97.10
79707;BME280;69200;53.612;-2.416;2023-09-19T03:51:03;98392.06;;;10.95;96.53
79707;BME280;69200;53.612;-2.416;2023-09-19T03:53:28;98393.16;;;10.88;95.90
79707;BME280;69200;53.612;-2.416;2023-09-19T03:55:54;98389.34;;;10.95;95.31
79707;BME280;69200;53.612;-2.416;2023-09-19T03:58:20;98379.22;;;11.05;95.01
79707;BME280;69200;53.612;-2.416;2023-09-19T04:00:45;98388.78;;;10.98;95.33
79707;BME280;69200;53.612;-2.416;2023-09-19T04:03:11;98380.03;;;11.06;95.49
79707;BME280;69200;53.612;-2.416;2023-09-19T04:05:44;98371.44;;;10.93;95.12
79707;BME280;69200;53.612;-2.416;2023-09-19T04:08:10;98358.16;;;10.87;95.08
79707;BME280;69200;53.612;-2.416;2023-09-19T04:10:35;98342.69;;;10.87;95.50
79707;BME280;69200;53.612;-2.416;2023-09-19T04:13:00;98327.22;;;10.93;95.33
79707;BME280;69200;53.612;-2.416;2023-09-19T04:15:26;98315.50;;;10.98;94.42
79707;BME280;69200;53.612;-2.416;2023-09-19T04:17:52;98305.72;;;10.97;95.27
79707;BME280;69200;53.612;-2.416;2023-09-19T04:20:18;98306.38;;;10.83;94.42
79707;BME280;69200;53.612;-2.416;2023-09-19T04:22:49;98298.75;;;10.85;94.95
79707;BME280;69200;53.612;-2.416;2023-09-19T04:25:15;98291.72;;;10.84;95.06
79707;BME280;69200;53.612;-2.416;2023-09-19T04:27:40;98295.78;;;10.82;94.89
79707;BME280;69200;53.612;-2.416;2023-09-19T04:30:07;98286.59;;;10.78;93.03
79707;BME280;69200;53.612;-2.416;2023-09-19T04:32:40;98289.03;;;10.79;95.73
79707;BME280;69200;53.612;-2.416;2023-09-19T04:35:10;98268.50;;;10.63;94.53
79707;BME280;69200;53.612;-2.416;2023-09-19T04:37:40;98263.06;;;10.63;95.84
79707;BME280;69200;53.612;-2.416;2023-09-19T04:40:08;98260.38;;;10.58;95.48
79707;BME280;69200;53.612;-2.416;2023-09-19T04:42:44;98247.91;;;10.57;95.23
79707;BME280;69200;53.612;-2.416;2023-09-19T04:45:11;98238.50;;;10.44;95.42
79707;BME280;69200;53.612;-2.416;2023-09-19T04:47:37;98228.56;;;10.19;96.66
79707;BME280;69200;53.612;-2.416;2023-09-19T04:50:08;98228.88;;;10.07;97.26
79707;BME280;69200;53.612;-2.416;2023-09-19T04:52:39;98218.03;;;10.02;97.55
79707;BME280;69200;53.612;-2.416;2023-09-19T04:55:04;98220.16;;;10.21;98.59
79707;BME280;69200;53.612;-2.416;2023-09-19T04:57:30;98209.91;;;10.07;97.20
79707;BME280;69200;53.612;-2.416;2023-09-19T04:59:57;98200.19;;;9.96;98.05
79707;BME280;69200;53.612;-2.416;2023-09-19T05:02:22;98189.13;;;9.82;98.19
79707;BME280;69200;53.612;-2.416;2023-09-19T05:04:48;98179.56;;;10.00;98.86
79707;BME280;69200;53.612;-2.416;2023-09-19T05:07:13;98172.25;;;10.06;98.92
79707;BME280;69200;53.612;-2.416;2023-09-19T05:09:38;98166.81;;;10.06;99.72
79707;BME280;69200;53.612;-2.416;2023-09-19T05:12:04;98160.88;;;10.04;98.98
79707;BME280;69200;53.612;-2.416;2023-09-19T05:14:29;98145.50;;;9.84;99.09
79707;BME280;69200;53.612;-2.416;2023-09-19T05:16:55;98139.56;;;9.82;99.28
79707;BME280;69200;53.612;-2.416;2023-09-19T05:19:20;98123.78;;;9.94;100.00
79707;BME280;69200;53.612;-2.416;2023-09-19T05:21:45;98120.81;;;9.96;99.95
79707;BME280;69200;53.612;-2.416;2023-09-19T05:24:12;98112.63;;;10.01;100.00
79707;BME280;69200;53.612;-2.416;2023-09-19T05:26:39;98097.38;;;10.15;100.00
79707;BME280;69200;53.612;-2.416;2023-09-19T05:29:05;98085.44;;;10.16;100.00
79707;BME280;69200;53.612;-2.416;2023-09-19T05:31:33;98091.44;;;10.13;100.00
79707;BME280;69200;53.612;-2.416;2023-09-19T05:34:01;98096.44;;;10.40;100.00
79707;BME280;69200;53.612;-2.416;2023-09-19T05:36:27;98075.00;;;10.44;100.00
79707;BME280;69200;53.612;-2.416;2023-09-19T05:38:55;98062.53;;;10.43;99.83
79707;BME280;69200;53.612;-2.416;2023-09-19T05:41:20;98055.97;;;10.49;99.08
79707;BME280;69200;53.612;-2.416;2023-09-19T05:43:49;98058.72;;;10.44;99.92
79707;BME280;69200;53.612;-2.416;2023-09-19T05:46:15;98041.69;;;10.38;100.00
79707;BME280;69200;53.612;-2.416;2023-09-19T05:48:41;98037.25;;;10.47;100.00
79707;BME280;69200;53.612;-2.416;2023-09-19T05:51:06;98044.78;;;10.55;100.00
79707;BME280;69200;53.612;-2.416;2023-09-19T05:53:32;98029.16;;;10.42;100.00
79707;BME280;69200;53.612;-2.416;2023-09-19T05:55:58;98025.16;;;10.34;100.00
79707;BME280;69200;53.612;-2.416;2023-09-19T05:58:23;98024.34;;;10.68;100.00
79707;BME280;69200;53.612;-2.416;2023-09-19T06:00:49;98028.91;;;10.73;100.00
79707;BME280;69200;53.612;-2.416;2023-09-19T06:03:15;98022.09;;;10.75;100.00
79707;BME280;69200;53.612;-2.416;2023-09-19T06:05:42;98017.34;;;10.91;100.00
79707;BME280;69200;53.612;-2.416;2023-09-19T06:08:08;98013.75;;;10.96;100.00
79707;BME280;69200;53.612;-2.416;2023-09-19T06:10:34;98008.59;;;10.94;100.00
79707;BME280;69200;53.612;-2.416;2023-09-19T06:13:01;97995.34;;;10.92;100.00
79707;BME280;69200;53.612;-2.416;2023-09-19T06:15:29;97980.66;;;10.93;100.00
79707;BME280;69200;53.612;-2.416;2023-09-19T06:17:58;97974.13;;;10.95;100.00
79707;BME280;69200;53.612;-2.416;2023-09-19T06:20:25;97963.56;;;10.93;100.00
79707;BME280;69200;53.612;-2.416;2023-09-19T06:22:52;97968.06;;;11.03;100.00
79707;BME280;69200;53.612;-2.416;2023-09-19T06:25:18;97951.19;;;11.06;100.00
79707;BME280;69200;53.612;-2.416;2023-09-19T06:27:51;97943.16;;;11.19;100.00
79707;BME280;69200;53.612;-2.416;2023-09-19T06:30:19;97932.88;;;11.16;100.00
79707;BME280;69200;53.612;-2.416;2023-09-19T06:32:45;97925.56;;;11.17;100.00
79707;BME280;69200;53.612;-2.416;2023-09-19T06:35:12;97919.47;;;11.25;100.00
79707;BME280;69200;53.612;-2.416;2023-09-19T06:37:38;97916.47;;;11.27;100.00
79707;BME280;69200;53.612;-2.416;2023-09-19T06:40:07;97913.75;;;11.27;100.00
79707;BME280;69200;53.612;-2.416;2023-09-19T06:42:33;97900.69;;;11.29;100.00
79707;BME280;69200;53.612;-2.416;2023-09-19T06:44:59;97899.81;;;11.33;100.00
79707;BME280;69200;53.612;-2.416;2023-09-19T06:47:24;97890.41;;;11.44;100.00
79707;BME280;69200;53.612;-2.416;2023-09-19T06:49:51;97886.00;;;11.48;100.00
79707;BME280;69200;53.612;-2.416;2023-09-19T06:52:17;97874.19;;;11.39;100.00
79707;BME280;69200;53.612;-2.416;2023-09-19T06:54:44;97869.47;;;11.45;100.00
79707;BME280;69200;53.612;-2.416;2023-09-19T06:57:10;97866.63;;;11.55;100.00
79707;BME280;69200;53.612;-2.416;2023-09-19T06:59:35;97870.22;;;11.51;100.00
79707;BME280;69200;53.612;-2.416;2023-09-19T07:02:02;97869.72;;;11.48;100.00
79707;BME280;69200;53.612;-2.416;2023-09-19T07:04:27;97859.28;;;11.56;100.00
79707;BME280;69200;53.612;-2.416;2023-09-19T07:06:53;97852.56;;;11.67;100.00
79707;BME280;69200;53.612;-2.416;2023-09-19T07:09:18;97843.13;;;11.78;100.00
79707;BME280;69200;53.612;-2.416;2023-09-19T07:11:47;97831.66;;;11.67;100.00
79707;BME280;69200;53.612;-2.416;2023-09-19T07:14:13;97842.59;;;11.81;100.00
79707;BME280;69200;53.612;-2.416;2023-09-19T07:16:38;97833.91;;;11.79;100.00
79707;BME280;69200;53.612;-2.416;2023-09-19T07:19:05;97833.16;;;11.92;100.00
79707;BME280;69200;53.612;-2.416;2023-09-19T07:21:31;97827.72;;;11.92;100.00
79707;BME280;69200;53.612;-2.416;2023-09-19T07:23:59;97825.91;;;12.01;100.00
79707;BME280;69200;53.612;-2.416;2023-09-19T07:26:26;97808.22;;;12.04;100.00
79707;BME280;69200;53.612;-2.416;2023-09-19T07:28:52;97810.03;;;12.09;100.00
79707;BME280;69200;53.612;-2.416;2023-09-19T07:31:18;97823.84;;;12.12;100.00
79707;BME280;69200;53.612;-2.416;2023-09-19T07:33:43;97804.28;;;12.24;100.00
79707;BME280;69200;53.612;-2.416;2023-09-19T07:36:10;97804.50;;;12.14;100.00
79707;BME280;69200;53.612;-2.416;2023-09-19T07:38:36;97806.22;;;12.23;100.00
79707;BME280;69200;53.612;-2.416;2023-09-19T07:41:02;97790.31;;;12.30;100.00
79707;BME280;69200;53.612;-2.416;2023-09-19T07:43:28;97795.25;;;12.28;100.00
79707;BME280;69200;53.612;-2.416;2023-09-19T07:45:54;97794.94;;;12.30;100.00
79707;BME280;69200;53.612;-2.416;2023-09-19T07:48:19;97790.59;;;12.43;100.00
79707;BME280;69200;53.612;-2.416;2023-09-19T07:50:45;97782.63;;;12.46;100.00
79707;BME280;69200;53.612;-2.416;2023-09-19T07:53:10;97791.06;;;12.58;100.00
79707;BME280;69200;53.612;-2.416;2023-09-19T07:55:38;97788.06;;;12.60;100.00
79707;BME280;69200;53.612;-2.416;2023-09-19T07:58:06;97783.63;;;12.64;100.00
79707;BME280;69200;53.612;-2.416;2023-09-19T08:00:32;97783.22;;;12.71;100.00
79707;BME280;69200;53.612;-2.416;2023-09-19T08:03:00;97807.78;;;12.79;100.00
79707;BME280;69200;53.612;-2.416;2023-09-19T08:05:26;97794.38;;;12.83;100.00
79707;BME280;69200;53.612;-2.416;2023-09-19T08:07:52;97790.75;;;12.74;100.00
79707;BME280;69200;53.612;-2.416;2023-09-19T08:10:19;97797.78;;;12.88;100.00
79707;BME280;69200;53.612;-2.416;2023-09-19T08:12:47;97803.16;;;12.80;100.00
79707;BME280;69200;53.612;-2.416;2023-09-19T08:15:17;97797.78;;;12.88;100.00
79707;BME280;69200;53.612;-2.416;2023-09-19T08:17:44;97811.38;;;13.02;100.00
79707;BME280;69200;53.612;-2.416;2023-09-19T08:20:10;97800.78;;;13.01;100.00
79707;BME280;69200;53.612;-2.416;2023-09-19T08:22:43;97799.13;;;13.13;100.00
79707;BME280;69200;53.612;-2.416;2023-09-19T08:25:09;97803.06;;;13.21;100.00
79707;BME280;69200;53.612;-2.416;2023-09-19T08:27:35;97805.47;;;13.23;100.00
79707;BME280;69200;53.612;-2.416;2023-09-19T08:30:01;97803.66;;;13.32;100.00
79707;BME280;69200;53.612;-2.416;2023-09-19T08:32:28;97820.75;;;13.24;100.00
79707;BME280;69200;53.612;-2.416;2023-09-19T08:34:54;97816.25;;;13.28;100.00
79707;BME280;69200;53.612;-2.416;2023-09-19T08:37:19;97814.56;;;13.32;100.00
79707;BME280;69200;53.612;-2.416;2023-09-19T08:39:45;97824.81;;;13.35;100.00
79707;BME280;69200;53.612;-2.416;2023-09-19T08:42:11;97820.81;;;13.32;100.00
79707;BME280;69200;53.612;-2.416;2023-09-19T08:44:38;97826.53;;;13.31;100.00
79707;BME280;69200;53.612;-2.416;2023-09-19T08:47:15;97828.63;;;13.48;100.00
79707;BME280;69200;53.612;-2.416;2023-09-19T08:50:27;97831.13;;;13.44;100.00
79707;BME280;69200;53.612;-2.416;2023-09-19T08:52:55;97826.75;;;13.57;100.00
79707;BME280;69200;53.612;-2.416;2023-09-19T08:55:25;97839.94;;;13.63;100.00
79707;BME280;69200;53.612;-2.416;2023-09-19T08:58:03;97840.75;;;13.64;100.00
79707;BME280;69200;53.612;-2.416;2023-09-19T09:00:30;97838.75;;;13.78;100.00
79707;BME280;69200;53.612;-2.416;2023-09-19T09:02:58;97842.03;;;13.89;100.00
79707;BME280;69200;53.612;-2.416;2023-09-19T09:05:27;97847.50;;;13.89;100.00
79707;BME280;69200;53.612;-2.416;2023-09-19T09:07:53;97838.50;;;13.88;100.00
79707;BME280;69200;53.612;-2.416;2023-09-19T09:10:22;97847.03;;;13.95;100.00
79707;BME280;69200;53.612;-2.416;2023-09-19T09:12:50;97847.88;;;13.96;100.00
79707;BME280;69200;53.612;-2.416;2023-09-19T09:15:18;97840.16;;;13.98;100.00
79707;BME280;69200;53.612;-2.416;2023-09-19T09:17:50;97842.19;;;14.15;100.00
79707;BME280;69200;53.612;-2.416;2023-09-19T09:20:17;97831.06;;;14.11;100.00
79707;BME280;69200;53.612;-2.416;2023-09-19T09:23:04;97854.03;;;14.10;100.00
79707;BME280;69200;53.612;-2.416;2023-09-19T09:25:49;97853.00;;;14.28;100.00
79707;BME280;69200;53.612;-2.416;2023-09-19T09:28:33;97841.00;;;14.38;100.00
79707;BME280;69200;53.612;-2.416;2023-09-19T09:30:59;97854.28;;;14.53;100.00
79707;BME280;69200;53.612;-2.416;2023-09-19T09:33:26;97850.78;;;14.62;100.00
79707;BME280;69200;53.612;-2.416;2023-09-19T09:35:58;97854.47;;;14.74;100.00
79707;BME280;69200;53.612;-2.416;2023-09-19T09:38:45;97858.88;;;14.93;100.00
79707;BME280;69200;53.612;-2.416;2023-09-19T09:41:11;97861.47;;;14.98;100.00
79707;BME280;69200;53.612;-2.416;2023-09-19T09:43:42;97866.13;;;15.06;100.00
79707;BME280;69200;53.612;-2.416;2023-09-19T09:48:45;97871.25;;;14.99;100.00
79707;BME280;69200;53.612;-2.416;2023-09-19T09:51:30;97871.13;;;15.04;100.00
79707;BME280;69200;53.612;-2.416;2023-09-19T09:54:10;97890.56;;;15.11;100.00
79707;BME280;69200;53.612;-2.416;2023-09-19T09:57:00;97879.16;;;15.09;100.00
79707;BME280;69200;53.612;-2.416;2023-09-19T09:59:48;97886.06;;;15.15;100.00
79707;BME280;69200;53.612;-2.416;2023-09-19T10:02:20;97887.66;;;15.07;100.00
79707;BME280;69200;53.612;-2.416;2023-09-19T10:04:57;97882.72;;;15.09;100.00
79707;BME280;69200;53.612;-2.416;2023-09-19T10:07:41;97892.97;;;15.04;100.00
79707;BME280;69200;53.612;-2.416;2023-09-19T10:10:12;97895.56;;;15.09;100.00
79707;BME280;69200;53.612;-2.416;2023-09-19T10:12:43;97905.53;;;15.14;100.00
79707;BME280;69200;53.612;-2.416;2023-09-19T10:15:12;97889.94;;;15.14;100.00
79707;BME280;69200;53.612;-2.416;2023-09-19T10:17:45;97898.44;;;15.13;100.00
79707;BME280;69200;53.612;-2.416;2023-09-19T10:20:15;97904.56;;;15.18;100.00
79707;BME280;69200;53.612;-2.416;2023-09-19T10:23:10;97902.66;;;15.19;100.00
79707;BME280;69200;53.612;-2.416;2023-09-19T10:25:42;97905.72;;;15.26;100.00
79707;BME280;69200;53.612;-2.416;2023-09-19T10:28:12;97903.13;;;15.29;100.00
79707;BME280;69200;53.612;-2.416;2023-09-19T10:30:41;97909.06;;;15.23;100.00
79707;BME280;69200;53.612;-2.416;2023-09-19T10:33:14;97908.59;;;15.29;100.00
79707;BME280;69200;53.612;-2.416;2023-09-19T10:35:48;97916.00;;;15.37;100.00
79707;BME280;69200;53.612;-2.416;2023-09-19T10:38:18;97911.81;;;15.31;100.00
79707;BME280;69200;53.612;-2.416;2023-09-19T10:40:49;97912.47;;;15.37;100.00
79707;BME280;69200;53.612;-2.416;2023-09-19T10:43:16;97911.34;;;15.38;100.00
79707;BME280;69200;53.612;-2.416;2023-09-19T10:45:44;97918.59;;;15.34;100.00
79707;BME280;69200;53.612;-2.416;2023-09-19T10:48:10;97912.47;;;15.28;100.00
79707;BME280;69200;53.612;-2.416;2023-09-19T10:50:44;97907.34;;;15.35;100.00
79707;BME280;69200;53.612;-2.416;2023-09-19T10:53:12;97904.75;;;15.30;100.00
79707;BME280;69200;53.612;-2.416;2023-09-19T10:55:39;97914.41;;;15.36;100.00
79707;BME280;69200;53.612;-2.416;2023-09-19T10:58:05;97918.75;;;15.46;100.00
79707;BME280;69200;53.612;-2.416;2023-09-19T11:01:06;97913.63;;;15.53;100.00
79707;BME280;69200;53.612;-2.416;2023-09-19T11:03:38;97921.22;;;15.65;100.00
79707;BME280;69200;53.612;-2.416;2023-09-19T11:06:18;97918.75;;;15.55;100.00
79707;BME280;69200;53.612;-2.416;2023-09-19T11:09:01;97917.63;;;15.56;100.00
79707;BME280;69200;53.612;-2.416;2023-09-19T11:11:50;97914.16;;;15.64;100.00
79707;BME280;69200;53.612;-2.416;2023-09-19T11:30:55;97925.88;;;15.99;100.00
79707;BME280;69200;53.612;-2.416;2023-09-19T11:33:26;97936.84;;;15.90;100.00
79707;BME280;69200;53.612;-2.416;2023-09-19T11:46:54;97931.38;;;15.90;100.00
79707;BME280;69200;53.612;-2.416;2023-09-19T11:49:31;97927.66;;;15.86;100.00
79707;BME280;69200;53.612;-2.416;2023-09-19T11:52:04;97934.72;;;15.87;100.00
79707;BME280;69200;53.612;-2.416;2023-09-19T11:54:35;97927.66;;;15.95;100.00
79707;BME280;69200;53.612;-2.416;2023-09-19T11:57:02;97933.44;;;15.85;100.00
79707;BME280;69200;53.612;-2.416;2023-09-19T11:59:29;97936.97;;;15.85;100.00
79707;BME280;69200;53.612;-2.416;2023-09-19T12:01:57;97937.47;;;15.87;100.00
79707;BME280;69200;53.612;-2.416;2023-09-19T12:04:39;97946.78;;;15.78;100.00
79707;BME280;69200;53.612;-2.416;2023-09-19T12:07:16;97945.03;;;15.82;100.00
79707;BME280;69200;53.612;-2.416;2023-09-19T12:09:42;97941.66;;;15.85;100.00
79707;BME280;69200;53.612;-2.416;2023-09-19T12:12:23;97941.00;;;15.88;100.00
79707;BME280;69200;53.612;-2.416;2023-09-19T12:14:53;97945.19;;;15.94;100.00
79707;BME280;69200;53.612;-2.416;2023-09-19T12:17:19;97941.50;;;15.99;100.00
79707;BME280;69200;53.612;-2.416;2023-09-19T12:19:53;97947.78;;;15.99;100.00
79707;BME280;69200;53.612;-2.416;2023-09-19T12:22:18;97944.22;;;15.99;100.00
79707;BME280;69200;53.612;-2.416;2023-09-19T12:24:46;97947.63;;;16.04;100.00
79707;BME280;69200;53.612;-2.416;2023-09-19T12:27:12;97947.44;;;16.09;100.00
79707;BME280;69200;53.612;-2.416;2023-09-19T12:29:46;97955.31;;;15.93;100.00
79707;BME280;69200;53.612;-2.416;2023-09-19T12:32:14;97953.41;;;15.94;100.00
79707;BME280;69200;53.612;-2.416;2023-09-19T12:34:42;97954.38;;;15.89;100.00
79707;BME280;69200;53.612;-2.416;2023-09-19T12:37:12;97961.28;;;15.87;100.00
79707;BME280;69200;53.612;-2.416;2023-09-19T12:39:39;97956.94;;;15.86;100.00
79707;BME280;69200;53.612;-2.416;2023-09-19T12:42:10;97951.78;;;15.84;100.00
79707;BME280;69200;53.612;-2.416;2023-09-19T12:44:41;97958.25;;;15.88;100.00
79707;BME280;69200;53.612;-2.416;2023-09-19T12:47:13;97953.25;;;15.99;100.00
79707;BME280;69200;53.612;-2.416;2023-09-19T12:52:38;97958.56;;;16.13;100.00
79707;BME280;69200;53.612;-2.416;2023-09-19T12:55:04;97965.13;;;16.12;100.00
79707;BME280;69200;53.612;-2.416;2023-09-19T12:57:35;97958.84;;;16.03;100.00
79707;BME280;69200;53.612;-2.416;2023-09-19T13:00:04;97954.84;;;16.09;100.00
79707;BME280;69200;53.612;-2.416;2023-09-19T13:02:36;97956.91;;;16.12;100.00
79707;BME280;69200;53.612;-2.416;2023-09-19T13:05:02;97963.06;;;16.00;100.00
79707;BME280;69200;53.612;-2.416;2023-09-19T13:07:45;97966.75;;;16.21;100.00
79707;BME280;69200;53.612;-2.416;2023-09-19T13:10:15;97961.56;;;16.20;100.00
79707;BME280;69200;53.612;-2.416;2023-09-19T13:12:43;97958.38;;;16.18;100.00
79707;BME280;69200;53.612;-2.416;2023-09-19T13:15:13;97951.13;;;16.22;100.00
79707;BME280;69200;53.612;-2.416;2023-09-19T13:17:45;97945.31;;;16.32;100.00
79707;BME280;69200;53.612;-2.416;2023-09-19T13:20:25;97958.22;;;16.23;100.00
79707;BME280;69200;53.612;-2.416;2023-09-19T13:22:55;97942.75;;;16.27;100.00
79707;BME280;69200;53.612;-2.416;2023-09-19T13:25:24;97947.41;;;16.27;100.00
79707;BME280;69200;53.612;-2.416;2023-09-19T13:27:51;97951.75;;;16.19;100.00
79707;BME280;69200;53.612;-2.416;2023-09-19T13:30:18;97939.06;;;16.23;100.00
79707;BME280;69200;53.612;-2.416;2023-09-19T13:32:44;97943.72;;;16.22;100.00
79707;BME280;69200;53.612;-2.416;2023-09-19T13:35:15;97951.94;;;16.14;100.00
79707;BME280;69200;53.612;-2.416;2023-09-19T13:37:41;97944.19;;;16.25;100.00
79707;BME280;69200;53.612;-2.416;2023-09-19T13:40:08;97960.28;;;16.26;100.00
79707;BME280;69200;53.612;-2.416;2023-09-19T13:42:34;97956.13;;;16.29;100.00
79707;BME280;69200;53.612;-2.416;2023-09-19T13:45:02;97959.47;;;16.34;100.00
79707;BME280;69200;53.612;-2.416;2023-09-19T13:47:27;97960.28;;;16.35;99.70
79707;BME280;69200;53.612;-2.416;2023-09-19T13:49:53;97958.34;;;16.27;100.00